sensor_id;sensor_type;location;lat;lon;timestamp;P1;durP1;ratioP1;P2;durP2;ratioP2
43297;SDS011;28892;55.640;37.532;2022-08-21T00:00:19;46.88;;;37.55;;
43297;SDS011;28892;55.640;37.532;2022-08-21T00:02:48;50.90;;;39.70;;
43297;SDS011;28892;55.640;37.532;2022-08-21T00:05:16;50.60;;;39.03;;
43297;SDS011;28892;55.640;37.532;2022-08-21T00:07:43;49.13;;;39.67;;
43297;SDS011;28892;55.640;37.532;2022-08-21T00:10:09;54.05;;;40.17;;
43297;SDS011;28892;55.640;37.532;2022-08-21T00:12:36;54.15;;;40.83;;
43297;SDS011;28892;55.640;37.532;2022-08-21T00:15:03;56.58;;;43.40;;
43297;SDS011;28892;55.640;37.532;2022-08-21T00:17:30;56.13;;;41.78;;
43297;SDS011;28892;55.640;37.532;2022-08-21T00:19:56;52.13;;;41.42;;
43297;SDS011;28892;55.640;37.532;2022-08-21T00:22:22;52.47;;;42.50;;
43297;SDS011;28892;55.640;37.532;2022-08-21T00:24:47;50.92;;;41.60;;
43297;SDS011;28892;55.640;37.532;2022-08-21T00:27:13;52.72;;;43.13;;
43297;SDS011;28892;55.640;37.532;2022-08-21T00:29:39;56.38;;;45.15;;
43297;SDS011;28892;55.640;37.532;2022-08-21T00:32:04;56.33;;;44.42;;
43297;SDS011;28892;55.640;37.532;2022-08-21T00:34:30;55.15;;;43.17;;
43297;SDS011;28892;55.640;37.532;2022-08-21T00:36:56;57.97;;;43.47;;
43297;SDS011;28892;55.640;37.532;2022-08-21T00:39:21;54.25;;;42.88;;
43297;SDS011;28892;55.640;37.532;2022-08-21T00:41:47;58.30;;;43.33;;
43297;SDS011;28892;55.640;37.532;2022-08-21T00:44:13;59.88;;;44.85;;
43297;SDS011;28892;55.640;37.532;2022-08-21T00:46:40;55.28;;;45.05;;
43297;SDS011;28892;55.640;37.532;2022-08-21T00:49:07;59.33;;;45.30;;
43297;SDS011;28892;55.640;37.532;2022-08-21T00:51:36;53.30;;;43.72;;
43297;SDS011;28892;55.640;37.532;2022-08-21T00:54:06;57.13;;;44.97;;
43297;SDS011;28892;55.640;37.532;2022-08-21T00:56:33;59.17;;;43.95;;
43297;SDS011;28892;55.640;37.532;2022-08-21T00:59:00;54.78;;;43.42;;
43297;SDS011;28892;55.640;37.532;2022-08-21T01:01:26;54.10;;;43.88;;
43297;SDS011;28892;55.640;37.532;2022-08-21T01:03:53;56.35;;;43.83;;
43297;SDS011;28892;55.640;37.532;2022-08-21T01:06:19;56.20;;;42.67;;
43297;SDS011;28892;55.640;37.532;2022-08-21T01:08:45;58.72;;;42.75;;
43297;SDS011;28892;55.640;37.532;2022-08-21T01:11:12;54.92;;;43.45;;
43297;SDS011;28892;55.640;37.532;2022-08-21T01:13:39;56.25;;;44.42;;
43297;SDS011;28892;55.640;37.532;2022-08-21T01:16:11;56.45;;;43.17;;
43297;SDS011;28892;55.640;37.532;2022-08-21T01:18:38;56.28;;;42.53;;
43297;SDS011;28892;55.640;37.532;2022-08-21T01:23:33;58.67;;;44.35;;
43297;SDS011;28892;55.640;37.532;2022-08-21T01:26:01;58.45;;;43.70;;
43297;SDS011;28892;55.640;37.532;2022-08-21T01:28:27;56.92;;;43.92;;
43297;SDS011;28892;55.640;37.532;2022-08-21T01:30:56;58.35;;;43.72;;
43297;SDS011;28892;55.640;37.532;2022-08-21T01:33:24;54.42;;;43.80;;
43297;SDS011;28892;55.640;37.532;2022-08-21T01:35:50;55.35;;;44.92;;
43297;SDS011;28892;55.640;37.532;2022-08-21T01:38:15;51.28;;;44.13;;
43297;SDS011;28892;55.640;37.532;2022-08-21T01:40:41;59.15;;;43.45;;
43297;SDS011;28892;55.640;37.532;2022-08-21T01:43:07;52.00;;;42.25;;
43297;SDS011;28892;55.640;37.532;2022-08-21T01:45:33;53.15;;;41.58;;
43297;SDS011;28892;55.640;37.532;2022-08-21T01:47:58;55.22;;;43.42;;
43297;SDS011;28892;55.640;37.532;2022-08-21T01:50:24;55.47;;;42.53;;
43297;SDS011;28892;55.640;37.532;2022-08-21T01:52:50;54.38;;;43.65;;
43297;SDS011;28892;55.640;37.532;2022-08-21T01:55:18;53.42;;;41.03;;
43297;SDS011;28892;55.640;37.532;2022-08-21T01:57:44;48.83;;;39.17;;
43297;SDS011;28892;55.640;37.532;2022-08-21T02:00:12;53.45;;;39.78;;
43297;SDS011;28892;55.640;37.532;2022-08-21T02:02:39;50.38;;;38.80;;
43297;SDS011;28892;55.640;37.532;2022-08-21T02:05:07;55.03;;;39.60;;
43297;SDS011;28892;55.640;37.532;2022-08-21T02:07:38;48.72;;;39.92;;
43297;SDS011;28892;55.640;37.532;2022-08-21T02:10:18;52.22;;;39.13;;
43297;SDS011;28892;55.640;37.532;2022-08-21T02:12:46;48.78;;;36.85;;
43297;SDS011;28892;55.640;37.532;2022-08-21T02:15:32;54.45;;;38.88;;
43297;SDS011;28892;55.640;37.532;2022-08-21T02:17:59;53.97;;;37.95;;
43297;SDS011;28892;55.640;37.532;2022-08-21T02:20:28;50.72;;;37.35;;
43297;SDS011;28892;55.640;37.532;2022-08-21T02:22:59;49.13;;;36.55;;
43297;SDS011;28892;55.640;37.532;2022-08-21T02:25:26;50.13;;;36.92;;
43297;SDS011;28892;55.640;37.532;2022-08-21T02:27:53;48.88;;;36.85;;
43297;SDS011;28892;55.640;37.532;2022-08-21T02:30:28;51.20;;;36.83;;
43297;SDS011;28892;55.640;37.532;2022-08-21T02:32:56;42.83;;;36.22;;
43297;SDS011;28892;55.640;37.532;2022-08-21T02:35:22;45.28;;;36.03;;
43297;SDS011;28892;55.640;37.532;2022-08-21T02:37:53;47.60;;;35.90;;
43297;SDS011;28892;55.640;37.532;2022-08-21T02:40:22;46.20;;;36.60;;
43297;SDS011;28892;55.640;37.532;2022-08-21T02:42:51;46.08;;;35.40;;
43297;SDS011;28892;55.640;37.532;2022-08-21T02:45:17;45.33;;;35.65;;
43297;SDS011;28892;55.640;37.532;2022-08-21T02:47:54;44.63;;;34.42;;
43297;SDS011;28892;55.640;37.532;2022-08-21T02:50:24;43.20;;;33.33;;
43297;SDS011;28892;55.640;37.532;2022-08-21T02:52:52;46.30;;;35.20;;
43297;SDS011;28892;55.640;37.532;2022-08-21T02:55:19;42.55;;;34.75;;
43297;SDS011;28892;55.640;37.532;2022-08-21T02:57:46;43.70;;;33.83;;
43297;SDS011;28892;55.640;37.532;2022-08-21T03:00:12;45.47;;;34.60;;
43297;SDS011;28892;55.640;37.532;2022-08-21T03:02:39;46.60;;;34.92;;
43297;SDS011;28892;55.640;37.532;2022-08-21T03:05:06;42.58;;;33.50;;
43297;SDS011;28892;55.640;37.532;2022-08-21T03:07:34;43.17;;;33.47;;
43297;SDS011;28892;55.640;37.532;2022-08-21T03:10:00;45.35;;;34.15;;
43297;SDS011;28892;55.640;37.532;2022-08-21T03:12:28;42.17;;;33.92;;
43297;SDS011;28892;55.640;37.532;2022-08-21T03:14:53;45.03;;;32.78;;
43297;SDS011;28892;55.640;37.532;2022-08-21T03:17:19;42.55;;;31.92;;
43297;SDS011;28892;55.640;37.532;2022-08-21T03:19:44;42.97;;;32.00;;
43297;SDS011;28892;55.640;37.532;2022-08-21T03:22:10;43.42;;;32.80;;
43297;SDS011;28892;55.640;37.532;2022-08-21T03:24:36;42.63;;;31.25;;
43297;SDS011;28892;55.640;37.532;2022-08-21T03:27:02;40.63;;;31.75;;
43297;SDS011;28892;55.640;37.532;2022-08-21T03:29:28;40.83;;;32.33;;
43297;SDS011;28892;55.640;37.532;2022-08-21T03:31:54;42.25;;;30.92;;
43297;SDS011;28892;55.640;37.532;2022-08-21T03:34:20;39.53;;;31.52;;
43297;SDS011;28892;55.640;37.532;2022-08-21T03:36:46;44.55;;;32.25;;
43297;SDS011;28892;55.640;37.532;2022-08-21T03:39:14;40.00;;;30.40;;
43297;SDS011;28892;55.640;37.532;2022-08-21T03:41:42;41.60;;;30.38;;
43297;SDS011;28892;55.640;37.532;2022-08-21T03:44:08;42.70;;;30.77;;
43297;SDS011;28892;55.640;37.532;2022-08-21T03:46:34;37.17;;;30.38;;
43297;SDS011;28892;55.640;37.532;2022-08-21T03:49:00;36.63;;;29.67;;
43297;SDS011;28892;55.640;37.532;2022-08-21T03:51:26;41.50;;;30.50;;
43297;SDS011;28892;55.640;37.532;2022-08-21T03:53:51;38.55;;;29.20;;
43297;SDS011;28892;55.640;37.532;2022-08-21T03:56:17;39.70;;;29.90;;
43297;SDS011;28892;55.640;37.532;2022-08-21T03:58:43;39.63;;;29.92;;
43297;SDS011;28892;55.640;37.532;2022-08-21T04:01:10;36.53;;;28.25;;
43297;SDS011;28892;55.640;37.532;2022-08-21T04:03:36;35.20;;;28.08;;
43297;SDS011;28892;55.640;37.532;2022-08-21T04:06:02;42.28;;;29.27;;
43297;SDS011;28892;55.640;37.532;2022-08-21T04:08:29;36.10;;;28.13;;
43297;SDS011;28892;55.640;37.532;2022-08-21T04:10:55;37.72;;;28.20;;
43297;SDS011;28892;55.640;37.532;2022-08-21T04:13:23;36.38;;;28.88;;
43297;SDS011;28892;55.640;37.532;2022-08-21T04:15:49;38.40;;;29.90;;
43297;SDS011;28892;55.640;37.532;2022-08-21T04:18:15;33.15;;;27.42;;
43297;SDS011;28892;55.640;37.532;2022-08-21T04:20:42;38.00;;;28.90;;
43297;SDS011;28892;55.640;37.532;2022-08-21T04:23:10;37.55;;;30.05;;
43297;SDS011;28892;55.640;37.532;2022-08-21T04:25:35;37.45;;;30.25;;
43297;SDS011;28892;55.640;37.532;2022-08-21T04:28:01;37.35;;;29.55;;
43297;SDS011;28892;55.640;37.532;2022-08-21T04:30:27;38.50;;;30.55;;
43297;SDS011;28892;55.640;37.532;2022-08-21T04:32:53;40.78;;;30.63;;
43297;SDS011;28892;55.640;37.532;2022-08-21T04:35:21;39.58;;;30.27;;
43297;SDS011;28892;55.640;37.532;2022-08-21T04:37:47;40.05;;;31.13;;
43297;SDS011;28892;55.640;37.532;2022-08-21T04:40:14;43.05;;;30.75;;
43297;SDS011;28892;55.640;37.532;2022-08-21T04:42:43;40.70;;;31.48;;
43297;SDS011;28892;55.640;37.532;2022-08-21T04:45:19;37.63;;;31.27;;
43297;SDS011;28892;55.640;37.532;2022-08-21T04:47:54;39.40;;;31.60;;
43297;SDS011;28892;55.640;37.532;2022-08-21T04:50:26;40.92;;;30.73;;
43297;SDS011;28892;55.640;37.532;2022-08-21T04:53:03;44.35;;;33.72;;
43297;SDS011;28892;55.640;37.532;2022-08-21T04:55:31;43.22;;;33.05;;
43297;SDS011;28892;55.640;37.532;2022-08-21T04:57:57;44.10;;;34.10;;
43297;SDS011;28892;55.640;37.532;2022-08-21T05:00:24;43.38;;;34.72;;
43297;SDS011;28892;55.640;37.532;2022-08-21T05:02:51;43.90;;;35.08;;
43297;SDS011;28892;55.640;37.532;2022-08-21T05:05:21;44.90;;;34.45;;
43297;SDS011;28892;55.640;37.532;2022-08-21T05:07:48;50.35;;;36.38;;
43297;SDS011;28892;55.640;37.532;2022-08-21T05:10:15;43.40;;;35.05;;
43297;SDS011;28892;55.640;37.532;2022-08-21T05:12:41;44.10;;;35.30;;
43297;SDS011;28892;55.640;37.532;2022-08-21T05:15:08;44.30;;;35.38;;
43297;SDS011;28892;55.640;37.532;2022-08-21T05:17:37;44.70;;;35.90;;
43297;SDS011;28892;55.640;37.532;2022-08-21T05:20:03;46.92;;;36.42;;
43297;SDS011;28892;55.640;37.532;2022-08-21T05:22:29;43.70;;;35.97;;
43297;SDS011;28892;55.640;37.532;2022-08-21T05:24:56;47.55;;;37.80;;
43297;SDS011;28892;55.640;37.532;2022-08-21T05:27:22;46.45;;;37.22;;
43297;SDS011;28892;55.640;37.532;2022-08-21T05:29:48;44.67;;;35.22;;
43297;SDS011;28892;55.640;37.532;2022-08-21T05:32:14;47.85;;;36.88;;
43297;SDS011;28892;55.640;37.532;2022-08-21T05:34:39;46.08;;;36.30;;
43297;SDS011;28892;55.640;37.532;2022-08-21T05:37:05;49.00;;;36.78;;
43297;SDS011;28892;55.640;37.532;2022-08-21T05:39:31;41.25;;;36.75;;
43297;SDS011;28892;55.640;37.532;2022-08-21T05:41:57;41.20;;;36.58;;
43297;SDS011;28892;55.640;37.532;2022-08-21T05:44:23;48.33;;;35.03;;
43297;SDS011;28892;55.640;37.532;2022-08-21T05:46:49;43.13;;;36.88;;
43297;SDS011;28892;55.640;37.532;2022-08-21T05:49:14;43.88;;;37.15;;
43297;SDS011;28892;55.640;37.532;2022-08-21T05:51:40;44.13;;;34.13;;
43297;SDS011;28892;55.640;37.532;2022-08-21T05:54:07;42.75;;;34.35;;
43297;SDS011;28892;55.640;37.532;2022-08-21T05:56:33;43.72;;;33.33;;
43297;SDS011;28892;55.640;37.532;2022-08-21T05:58:58;41.35;;;32.42;;
43297;SDS011;28892;55.640;37.532;2022-08-21T06:01:24;41.45;;;31.75;;
43297;SDS011;28892;55.640;37.532;2022-08-21T06:03:50;38.38;;;31.38;;
43297;SDS011;28892;55.640;37.532;2022-08-21T06:06:16;37.45;;;31.02;;
43297;SDS011;28892;55.640;37.532;2022-08-21T06:08:41;36.60;;;29.10;;
43297;SDS011;28892;55.640;37.532;2022-08-21T06:11:08;42.40;;;31.05;;
43297;SDS011;28892;55.640;37.532;2022-08-21T06:13:35;34.05;;;29.85;;
43297;SDS011;28892;55.640;37.532;2022-08-21T06:18:33;41.35;;;30.65;;
43297;SDS011;28892;55.640;37.532;2022-08-21T06:20:59;38.03;;;29.35;;
43297;SDS011;28892;55.640;37.532;2022-08-21T06:23:25;38.30;;;29.15;;
43297;SDS011;28892;55.640;37.532;2022-08-21T06:25:51;36.92;;;28.38;;
43297;SDS011;28892;55.640;37.532;2022-08-21T06:28:16;37.83;;;28.20;;
43297;SDS011;28892;55.640;37.532;2022-08-21T06:30:42;36.97;;;29.42;;
43297;SDS011;28892;55.640;37.532;2022-08-21T06:33:08;37.83;;;29.45;;
43297;SDS011;28892;55.640;37.532;2022-08-21T06:35:34;36.90;;;29.20;;
43297;SDS011;28892;55.640;37.532;2022-08-21T06:38:00;34.22;;;27.48;;
43297;SDS011;28892;55.640;37.532;2022-08-21T06:40:27;33.85;;;26.23;;
43297;SDS011;28892;55.640;37.532;2022-08-21T06:42:53;34.08;;;26.60;;
43297;SDS011;28892;55.640;37.532;2022-08-21T06:45:23;35.38;;;27.73;;
43297;SDS011;28892;55.640;37.532;2022-08-21T06:47:49;36.08;;;26.63;;
43297;SDS011;28892;55.640;37.532;2022-08-21T06:50:15;38.17;;;27.35;;
43297;SDS011;28892;55.640;37.532;2022-08-21T06:52:41;33.00;;;25.50;;
43297;SDS011;28892;55.640;37.532;2022-08-21T06:55:08;36.10;;;27.10;;
43297;SDS011;28892;55.640;37.532;2022-08-21T06:57:35;32.25;;;23.83;;
43297;SDS011;28892;55.640;37.532;2022-08-21T07:00:02;29.10;;;24.20;;
43297;SDS011;28892;55.640;37.532;2022-08-21T07:02:30;36.05;;;24.63;;
43297;SDS011;28892;55.640;37.532;2022-08-21T07:04:56;36.40;;;25.67;;
43297;SDS011;28892;55.640;37.532;2022-08-21T07:07:23;30.98;;;25.02;;
43297;SDS011;28892;55.640;37.532;2022-08-21T07:09:48;29.20;;;25.02;;
43297;SDS011;28892;55.640;37.532;2022-08-21T07:12:14;29.10;;;25.58;;
43297;SDS011;28892;55.640;37.532;2022-08-21T07:14:40;31.23;;;26.67;;
43297;SDS011;28892;55.640;37.532;2022-08-21T07:17:05;35.03;;;28.00;;
43297;SDS011;28892;55.640;37.532;2022-08-21T07:19:31;35.17;;;28.52;;
43297;SDS011;28892;55.640;37.532;2022-08-21T07:21:57;33.50;;;27.77;;
43297;SDS011;28892;55.640;37.532;2022-08-21T07:24:27;33.50;;;27.13;;
43297;SDS011;28892;55.640;37.532;2022-08-21T07:26:53;37.17;;;28.02;;
43297;SDS011;28892;55.640;37.532;2022-08-21T07:29:18;35.33;;;27.67;;
43297;SDS011;28892;55.640;37.532;2022-08-21T07:31:44;34.63;;;26.60;;
43297;SDS011;28892;55.640;37.532;2022-08-21T07:34:10;29.98;;;23.85;;
43297;SDS011;28892;55.640;37.532;2022-08-21T07:36:36;31.25;;;25.30;;
43297;SDS011;28892;55.640;37.532;2022-08-21T07:39:02;28.73;;;24.50;;
43297;SDS011;28892;55.640;37.532;2022-08-21T07:41:28;31.95;;;25.10;;
43297;SDS011;28892;55.640;37.532;2022-08-21T07:43:58;30.58;;;24.23;;
43297;SDS011;28892;55.640;37.532;2022-08-21T07:46:24;33.50;;;25.33;;
43297;SDS011;28892;55.640;37.532;2022-08-21T07:48:51;30.50;;;24.42;;
43297;SDS011;28892;55.640;37.532;2022-08-21T07:51:17;28.33;;;23.33;;
43297;SDS011;28892;55.640;37.532;2022-08-21T07:53:51;35.50;;;23.83;;
43297;SDS011;28892;55.640;37.532;2022-08-21T07:56:18;28.00;;;23.23;;
43297;SDS011;28892;55.640;37.532;2022-08-21T07:58:45;32.55;;;23.95;;
43297;SDS011;28892;55.640;37.532;2022-08-21T08:01:10;32.15;;;25.00;;
43297;SDS011;28892;55.640;37.532;2022-08-21T08:03:37;33.47;;;25.77;;
43297;SDS011;28892;55.640;37.532;2022-08-21T08:06:04;31.00;;;23.23;;
43297;SDS011;28892;55.640;37.532;2022-08-21T08:08:30;25.65;;;22.33;;
43297;SDS011;28892;55.640;37.532;2022-08-21T08:10:57;29.48;;;21.63;;
43297;SDS011;28892;55.640;37.532;2022-08-21T08:13:37;26.17;;;20.83;;
43297;SDS011;28892;55.640;37.532;2022-08-21T08:16:04;29.17;;;20.83;;
43297;SDS011;28892;55.640;37.532;2022-08-21T08:18:30;25.67;;;22.55;;
43297;SDS011;28892;55.640;37.532;2022-08-21T08:20:55;30.00;;;21.08;;
43297;SDS011;28892;55.640;37.532;2022-08-21T08:23:21;26.50;;;21.95;;
43297;SDS011;28892;55.640;37.532;2022-08-21T08:25:48;26.17;;;21.20;;
43297;SDS011;28892;55.640;37.532;2022-08-21T08:28:13;28.98;;;21.10;;
43297;SDS011;28892;55.640;37.532;2022-08-21T08:30:39;25.25;;;20.23;;
43297;SDS011;28892;55.640;37.532;2022-08-21T08:33:05;28.65;;;20.58;;
43297;SDS011;28892;55.640;37.532;2022-08-21T08:35:30;28.10;;;21.40;;
43297;SDS011;28892;55.640;37.532;2022-08-21T08:37:56;28.35;;;22.13;;
43297;SDS011;28892;55.640;37.532;2022-08-21T08:40:28;28.95;;;21.52;;
43297;SDS011;28892;55.640;37.532;2022-08-21T08:43:02;26.88;;;21.70;;
43297;SDS011;28892;55.640;37.532;2022-08-21T08:45:28;25.67;;;21.52;;
43297;SDS011;28892;55.640;37.532;2022-08-21T08:48:00;27.92;;;21.67;;
43297;SDS011;28892;55.640;37.532;2022-08-21T08:50:49;24.83;;;20.27;;
43297;SDS011;28892;55.640;37.532;2022-08-21T08:53:22;26.63;;;19.00;;
43297;SDS011;28892;55.640;37.532;2022-08-21T08:55:54;24.98;;;18.40;;
43297;SDS011;28892;55.640;37.532;2022-08-21T08:58:28;24.73;;;19.25;;
43297;SDS011;28892;55.640;37.532;2022-08-21T09:00:57;23.25;;;19.27;;
43297;SDS011;28892;55.640;37.532;2022-08-21T09:03:23;31.90;;;19.42;;
43297;SDS011;28892;55.640;37.532;2022-08-21T09:11:11;22.27;;;17.95;;
43297;SDS011;28892;55.640;37.532;2022-08-21T09:21:38;22.20;;;16.25;;
43297;SDS011;28892;55.640;37.532;2022-08-21T09:29:40;17.98;;;14.15;;
43297;SDS011;28892;55.640;37.532;2022-08-21T09:32:20;23.13;;;14.00;;
43297;SDS011;28892;55.640;37.532;2022-08-21T09:34:55;22.23;;;15.18;;
43297;SDS011;28892;55.640;37.532;2022-08-21T09:37:34;20.13;;;15.40;;
43297;SDS011;28892;55.640;37.532;2022-08-21T09:43:03;18.42;;;14.32;;
43297;SDS011;28892;55.640;37.532;2022-08-21T09:46:00;21.58;;;14.63;;
43297;SDS011;28892;55.640;37.532;2022-08-21T09:48:42;20.90;;;14.15;;
43297;SDS011;28892;55.640;37.532;2022-08-21T09:51:15;18.25;;;12.95;;
43297;SDS011;28892;55.640;37.532;2022-08-21T09:53:53;19.05;;;13.25;;
43297;SDS011;28892;55.640;37.532;2022-08-21T09:59:12;17.55;;;13.40;;
43297;SDS011;28892;55.640;37.532;2022-08-21T10:01:45;19.20;;;12.77;;
43297;SDS011;28892;55.640;37.532;2022-08-21T10:06:45;16.05;;;9.95;;
43297;SDS011;28892;55.640;37.532;2022-08-21T10:09:11;16.83;;;10.52;;
43297;SDS011;28892;55.640;37.532;2022-08-21T10:12:28;18.00;;;10.23;;
43297;SDS011;28892;55.640;37.532;2022-08-21T10:14:51;13.82;;;9.32;;
43297;SDS011;28892;55.640;37.532;2022-08-21T10:17:37;11.57;;;7.88;;
43297;SDS011;28892;55.640;37.532;2022-08-21T10:20:17;14.75;;;7.38;;
43297;SDS011;28892;55.640;37.532;2022-08-21T10:31:07;10.85;;;5.75;;
43297;SDS011;28892;55.640;37.532;2022-08-21T10:33:41;12.30;;;5.90;;
43297;SDS011;28892;55.640;37.532;2022-08-21T10:39:22;12.80;;;5.20;;
43297;SDS011;28892;55.640;37.532;2022-08-21T10:47:35;12.57;;;6.13;;
43297;SDS011;28892;55.640;37.532;2022-08-21T10:55:23;12.95;;;4.80;;
43297;SDS011;28892;55.640;37.532;2022-08-21T11:00:40;9.73;;;3.95;;
43297;SDS011;28892;55.640;37.532;2022-08-21T11:03:13;6.22;;;3.95;;
43297;SDS011;28892;55.640;37.532;2022-08-21T11:06:06;9.82;;;4.05;;
43297;SDS011;28892;55.640;37.532;2022-08-21T11:08:51;6.70;;;3.70;;
43297;SDS011;28892;55.640;37.532;2022-08-21T11:11:41;7.20;;;3.50;;
43297;SDS011;28892;55.640;37.532;2022-08-21T11:17:43;4.95;;;2.92;;
43297;SDS011;28892;55.640;37.532;2022-08-21T11:20:16;7.65;;;2.67;;
43297;SDS011;28892;55.640;37.532;2022-08-21T11:22:49;9.63;;;2.60;;
43297;SDS011;28892;55.640;37.532;2022-08-21T11:27:50;5.65;;;3.17;;
43297;SDS011;28892;55.640;37.532;2022-08-21T11:30:21;7.40;;;3.20;;
43297;SDS011;28892;55.640;37.532;2022-08-21T11:33:21;8.45;;;4.53;;
43297;SDS011;28892;55.640;37.532;2022-08-21T11:35:58;9.00;;;3.72;;
43297;SDS011;28892;55.640;37.532;2022-08-21T11:38:39;5.80;;;2.97;;
43297;SDS011;28892;55.640;37.532;2022-08-21T11:41:18;7.25;;;3.47;;
43297;SDS011;28892;55.640;37.532;2022-08-21T11:49:31;8.02;;;4.05;;
43297;SDS011;28892;55.640;37.532;2022-08-21T11:52:16;14.20;;;4.95;;
43297;SDS011;28892;55.640;37.532;2022-08-21T11:57:29;11.02;;;5.53;;
43297;SDS011;28892;55.640;37.532;2022-08-21T12:00:05;12.32;;;5.88;;
43297;SDS011;28892;55.640;37.532;2022-08-21T12:02:46;14.23;;;5.28;;
43297;SDS011;28892;55.640;37.532;2022-08-21T12:05:33;13.00;;;5.28;;
43297;SDS011;28892;55.640;37.532;2022-08-21T12:10:37;13.63;;;4.93;;
43297;SDS011;28892;55.640;37.532;2022-08-21T12:13:07;10.82;;;5.30;;
43297;SDS011;28892;55.640;37.532;2022-08-21T12:15:37;10.67;;;4.73;;
43297;SDS011;28892;55.640;37.532;2022-08-21T12:18:04;11.52;;;4.20;;
43297;SDS011;28892;55.640;37.532;2022-08-21T12:20:45;9.93;;;4.43;;
43297;SDS011;28892;55.640;37.532;2022-08-21T12:23:43;8.15;;;4.03;;
43297;SDS011;28892;55.640;37.532;2022-08-21T12:28:38;7.80;;;4.18;;
43297;SDS011;28892;55.640;37.532;2022-08-21T12:31:04;8.52;;;3.00;;
43297;SDS011;28892;55.640;37.532;2022-08-21T12:33:41;11.18;;;3.30;;
43297;SDS011;28892;55.640;37.532;2022-08-21T12:36:15;10.27;;;2.90;;
43297;SDS011;28892;55.640;37.532;2022-08-21T12:39:05;7.22;;;2.45;;
43297;SDS011;28892;55.640;37.532;2022-08-21T12:42:22;22.35;;;12.27;;
43297;SDS011;28892;55.640;37.532;2022-08-21T12:52:14;12.18;;;2.67;;
43297;SDS011;28892;55.640;37.532;2022-08-21T12:54:45;10.15;;;2.47;;
43297;SDS011;28892;55.640;37.532;2022-08-21T12:57:44;9.98;;;3.35;;
43297;SDS011;28892;55.640;37.532;2022-08-21T13:00:07;11.18;;;2.92;;
43297;SDS011;28892;55.640;37.532;2022-08-21T13:02:38;10.52;;;2.78;;
43297;SDS011;28892;55.640;37.532;2022-08-21T13:05:16;9.13;;;3.30;;
43297;SDS011;28892;55.640;37.532;2022-08-21T13:07:49;12.00;;;3.83;;
43297;SDS011;28892;55.640;37.532;2022-08-21T13:10:23;11.40;;;4.07;;
43297;SDS011;28892;55.640;37.532;2022-08-21T13:12:56;9.75;;;4.00;;
43297;SDS011;28892;55.640;37.532;2022-08-21T13:15:31;10.30;;;4.15;;
43297;SDS011;28892;55.640;37.532;2022-08-21T13:17:59;10.52;;;4.30;;
43297;SDS011;28892;55.640;37.532;2022-08-21T13:20:36;13.90;;;4.68;;
43297;SDS011;28892;55.640;37.532;2022-08-21T13:23:06;13.52;;;4.32;;
43297;SDS011;28892;55.640;37.532;2022-08-21T13:25:52;8.00;;;4.63;;
43297;SDS011;28892;55.640;37.532;2022-08-21T13:28:18;12.55;;;4.95;;
43297;SDS011;28892;55.640;37.532;2022-08-21T13:30:45;10.85;;;4.32;;
43297;SDS011;28892;55.640;37.532;2022-08-21T13:33:14;10.50;;;4.65;;
43297;SDS011;28892;55.640;37.532;2022-08-21T13:35:47;12.40;;;4.32;;
43297;SDS011;28892;55.640;37.532;2022-08-21T13:38:16;6.90;;;4.38;;
43297;SDS011;28892;55.640;37.532;2022-08-21T13:40:46;10.32;;;5.00;;
43297;SDS011;28892;55.640;37.532;2022-08-21T13:43:18;15.93;;;4.63;;
43297;SDS011;28892;55.640;37.532;2022-08-21T13:45:49;10.38;;;4.45;;
43297;SDS011;28892;55.640;37.532;2022-08-21T13:48:16;8.57;;;4.68;;
43297;SDS011;28892;55.640;37.532;2022-08-21T13:50:42;14.43;;;5.20;;
43297;SDS011;28892;55.640;37.532;2022-08-21T13:53:23;9.85;;;4.07;;
43297;SDS011;28892;55.640;37.532;2022-08-21T13:56:01;9.75;;;4.22;;
43297;SDS011;28892;55.640;37.532;2022-08-21T13:58:29;8.30;;;3.95;;
43297;SDS011;28892;55.640;37.532;2022-08-21T14:00:59;8.00;;;3.90;;
43297;SDS011;28892;55.640;37.532;2022-08-21T14:03:40;13.35;;;4.43;;
43297;SDS011;28892;55.640;37.532;2022-08-21T14:06:18;13.75;;;4.13;;
43297;SDS011;28892;55.640;37.532;2022-08-21T14:08:48;12.15;;;4.30;;
43297;SDS011;28892;55.640;37.532;2022-08-21T14:11:16;13.00;;;4.03;;
43297;SDS011;28892;55.640;37.532;2022-08-21T14:13:44;7.53;;;4.15;;
43297;SDS011;28892;55.640;37.532;2022-08-21T14:16:16;10.00;;;4.30;;
43297;SDS011;28892;55.640;37.532;2022-08-21T14:18:46;9.50;;;3.90;;
43297;SDS011;28892;55.640;37.532;2022-08-21T14:21:33;10.65;;;4.05;;
43297;SDS011;28892;55.640;37.532;2022-08-21T14:26:29;10.15;;;4.20;;
43297;SDS011;28892;55.640;37.532;2022-08-21T14:28:58;9.80;;;4.60;;
43297;SDS011;28892;55.640;37.532;2022-08-21T14:31:28;10.68;;;4.40;;
43297;SDS011;28892;55.640;37.532;2022-08-21T14:33:55;11.13;;;4.32;;
43297;SDS011;28892;55.640;37.532;2022-08-21T14:36:21;14.23;;;5.07;;
43297;SDS011;28892;55.640;37.532;2022-08-21T14:38:47;13.52;;;6.70;;
43297;SDS011;28892;55.640;37.532;2022-08-21T14:41:18;12.35;;;6.75;;
43297;SDS011;28892;55.640;37.532;2022-08-21T14:43:49;16.20;;;6.70;;
43297;SDS011;28892;55.640;37.532;2022-08-21T14:46:21;13.75;;;6.25;;
43297;SDS011;28892;55.640;37.532;2022-08-21T14:48:50;13.85;;;6.45;;
43297;SDS011;28892;55.640;37.532;2022-08-21T14:51:16;15.43;;;6.35;;
43297;SDS011;28892;55.640;37.532;2022-08-21T14:53:42;15.02;;;6.25;;
43297;SDS011;28892;55.640;37.532;2022-08-21T14:56:07;11.52;;;5.85;;
43297;SDS011;28892;55.640;37.532;2022-08-21T14:58:38;13.73;;;6.95;;
43297;SDS011;28892;55.640;37.532;2022-08-21T15:01:09;10.43;;;5.82;;
43297;SDS011;28892;55.640;37.532;2022-08-21T15:03:36;12.00;;;5.80;;
43297;SDS011;28892;55.640;37.532;2022-08-21T15:06:04;9.10;;;5.70;;
43297;SDS011;28892;55.640;37.532;2022-08-21T15:08:30;13.55;;;6.25;;
43297;SDS011;28892;55.640;37.532;2022-08-21T15:10:57;13.68;;;5.43;;
43297;SDS011;28892;55.640;37.532;2022-08-21T15:13:25;14.07;;;5.38;;
43297;SDS011;28892;55.640;37.532;2022-08-21T15:15:51;12.50;;;5.03;;
43297;SDS011;28892;55.640;37.532;2022-08-21T15:18:24;11.82;;;4.93;;
43297;SDS011;28892;55.640;37.532;2022-08-21T15:20:51;10.55;;;5.10;;
43297;SDS011;28892;55.640;37.532;2022-08-21T15:23:17;7.32;;;4.50;;
43297;SDS011;28892;55.640;37.532;2022-08-21T15:25:44;7.65;;;3.63;;
43297;SDS011;28892;55.640;37.532;2022-08-21T15:28:11;9.60;;;4.15;;
43297;SDS011;28892;55.640;37.532;2022-08-21T15:30:39;7.68;;;4.32;;
43297;SDS011;28892;55.640;37.532;2022-08-21T15:33:06;6.90;;;3.90;;
43297;SDS011;28892;55.640;37.532;2022-08-21T15:35:33;9.57;;;4.10;;
43297;SDS011;28892;55.640;37.532;2022-08-21T15:37:59;10.38;;;3.22;;
43297;SDS011;28892;55.640;37.532;2022-08-21T15:40:25;10.63;;;3.80;;
43297;SDS011;28892;55.640;37.532;2022-08-21T15:42:53;8.52;;;3.97;;
43297;SDS011;28892;55.640;37.532;2022-08-21T15:45:22;11.07;;;3.40;;
43297;SDS011;28892;55.640;37.532;2022-08-21T15:47:48;5.85;;;3.30;;
43297;SDS011;28892;55.640;37.532;2022-08-21T15:50:15;10.38;;;3.83;;
43297;SDS011;28892;55.640;37.532;2022-08-21T15:52:41;8.07;;;3.13;;